Latest Weather Observations for Outer Harbor (Black Pole)

IDS60901

Issued at 8:41 pm CDT Sunday 28 February 2021 (issued every 10 minutes, with the page automatically refreshed every 10 minutes)

About weather observations | Map of Adelaide area stations | Latest observations for Adelaide area | Other Formats
Station Details ID: 023052 Name: BLACK POLE Lat: -34.73 Lon: 138.47 Height: 6.27 m
Data from the previous 72 hours. | See also: Recent months for locations in South Australia
Date/Time
CDT
Temp
°C
App
Temp
°C
Dew
Point
°C
Rel
Hum
%
Delta-T
°C
Wind Press
QNH
hPa
Press
MSL
hPa
Rain since
9am
mm
Dir  Spd
km/h
Gust
km/h
Spd
kts
Gust
kts
28/08:30pm - - - - - SSW 32 37 17 20 - - -
28/08:00pm - - - - - SSW 35 43 19 23 - - -
28/07:30pm - - - - - SSW 35 41 19 22 - - -
28/07:00pm - - - - - SSW 33 41 18 22 - - -
28/06:30pm - - - - - SSW 33 39 18 21 - - -
28/06:00pm - - - - - SSW 35 41 19 22 - - -
28/05:30pm - - - - - SSW 32 37 17 20 - - -
28/05:00pm - - - - - SSW 32 35 17 19 - - -
28/04:30pm - - - - - SSW 33 37 18 20 - - -
28/04:00pm - - - - - SSW 32 35 17 19 - - -
28/03:30pm - - - - - SSW 32 35 17 19 - - -
28/03:00pm - - - - - SW 28 32 15 17 - - -
28/02:30pm - - - - - SW 28 32 15 17 - - -
28/02:00pm - - - - - SW 26 30 14 16 - - -
28/01:30pm - - - - - SSW 24 28 13 15 - - -
28/01:00pm - - - - - SSW 24 26 13 14 - - -
28/12:30pm - - - - - SSW 22 24 12 13 - - -
28/12:00pm - - - - - SSW 22 24 12 13 - - -
28/11:30am - - - - - SSW 17 19 9 10 - - -
28/11:00am - - - - - SSW 11 15 6 8 - - -
28/10:30am - - - - - SSW 9 13 5 7 - - -
28/10:00am - - - - - S 7 9 4 5 - - -
28/09:30am - - - - - SSE 4 7 2 4 - - -
28/09:00am - - - - - ESE 4 6 2 3 - - -
28/08:30am - - - - - ENE 7 9 4 5 - - -
28/08:00am - - - - - NE 6 7 3 4 - - -
28/07:30am - - - - - SE 4 6 2 3 - - -
28/07:00am - - - - - S 2 2 1 1 - - -
28/06:30am - - - - - E 4 6 2 3 - - -
28/06:00am - - - - - NE 6 9 3 5 - - -
28/05:30am - - - - - NNE 9 13 5 7 - - -
28/05:00am - - - - - NNE 11 13 6 7 - - -
28/04:30am - - - - - NNE 11 13 6 7 - - -
28/04:00am - - - - - NNE 13 17 7 9 - - -
28/03:30am - - - - - NNE 15 19 8 10 - - -
28/03:00am - - - - - NNE 17 20 9 11 - - -
28/02:30am - - - - - E 6 7 3 4 - - -
28/02:00am - - - - - SSE 11 15 6 8 - - -
28/01:30am - - - - - S 17 19 9 10 - - -
28/01:00am - - - - - S 19 20 10 11 - - -
28/12:30am - - - - - S 20 22 11 12 - - -
28/12:00am - - - - - SSW 19 22 10 12 - - -
 
Date/Time
CDT
Temp
°C
App
Temp
°C
Dew
Point
°C
Rel
Hum
%
Delta-T
°C
Wind Press
QNH
hPa
Press
MSL
hPa
Rain since
9am
mm
Dir  Spd
km/h
Gust
km/h
Spd
kts
Gust
kts
27/11:30pm - - - - - SSW 17 19 9 10 - - -
27/11:00pm - - - - - S 11 15 6 8 - - -
27/10:30pm - - - - - S 11 15 6 8 - - -
27/10:00pm - - - - - SSW 19 22 10 12 - - -
27/09:30pm - - - - - SSW 22 26 12 14 - - -
27/09:00pm - - - - - S 24 26 13 14 - - -
27/08:30pm - - - - - S 24 28 13 15 - - -
27/08:00pm - - - - - SSW 26 30 14 16 - - -
27/07:30pm - - - - - SSW 28 33 15 18 - - -
27/07:00pm - - - - - SSW 30 35 16 19 - - -
27/06:30pm - - - - - S 30 35 16 19 - - -
27/06:00pm - - - - - S 28 33 15 18 - - -
27/05:30pm - - - - - S 28 32 15 17 - - -
27/05:00pm - - - - - SSW 30 33 16 18 - - -
27/04:30pm - - - - - SSW 30 33 16 18 - - -
27/04:00pm - - - - - S 28 32 15 17 - - -
27/03:30pm - - - - - SSW 28 30 15 16 - - -
27/03:00pm - - - - - SSW 22 26 12 14 - - -
27/02:30pm - - - - - SW 20 24 11 13 - - -
27/02:00pm - - - - - SSW 17 19 9 10 - - -
27/01:30pm - - - - - SW 19 20 10 11 - - -
27/01:00pm - - - - - SSW 17 20 9 11 - - -
27/12:30pm - - - - - SW 17 20 9 11 - - -
27/12:00pm - - - - - SW 20 22 11 12 - - -
27/11:30am - - - - - SW 17 20 9 11 - - -
27/11:00am - - - - - SSW 6 9 3 5 - - -
27/10:30am - - - - - ENE 2 4 1 2 - - -
27/10:00am - - - - - ENE 7 9 4 5 - - -
27/09:30am - - - - - NNE 9 11 5 6 - - -
27/09:00am - - - - - NE 7 9 4 5 - - -
27/08:30am - - - - - NE 7 9 4 5 - - -
27/08:00am - - - - - NE 7 9 4 5 - - -
27/07:30am - - - - - ENE 11 15 6 8 - - -
27/07:00am - - - - - NE 11 13 6 7 - - -
27/06:30am - - - - - NE 9 11 5 6 - - -
27/06:00am - - - - - NNE 11 13 6 7 - - -
27/05:30am - - - - - NNE 11 15 6 8 - - -
27/05:00am - - - - - NNE 7 11 4 6 - - -
27/04:30am - - - - - ENE 2 6 1 3 - - -
27/04:00am - - - - - SE 4 6 2 3 - - -
27/03:30am - - - - - SE 7 9 4 5 - - -
27/03:00am - - - - - SE 9 11 5 6 - - -
27/02:30am - - - - - SE 11 15 6 8 - - -
27/02:00am - - - - - SE 9 13 5 7 - - -
27/01:30am - - - - - SE 11 13 6 7 - - -
27/01:00am - - - - - SE 17 20 9 11 - - -
27/12:30am - - - - - ESE 19 22 10 12 - - -
27/12:00am - - - - - ESE 20 24 11 13 - - -
 
Date/Time
CDT
Temp
°C
App
Temp
°C
Dew
Point
°C
Rel
Hum
%
Delta-T
°C
Wind Press
QNH
hPa
Press
MSL
hPa
Rain since
9am
mm
Dir  Spd
km/h
Gust
km/h
Spd
kts
Gust
kts
26/11:30pm - - - - - ESE 20 24 11 13 - - -
26/11:00pm - - - - - ESE 20 26 11 14 - - -
26/10:30pm - - - - - ESE 20 24 11 13 - - -
26/10:00pm - - - - - ESE 20 22 11 12 - - -
26/09:30pm - - - - - ESE 24 28 13 15 - - -
26/09:00pm - - - - - SE 26 32 14 17 - - -
26/08:30pm - - - - - SSW 20 24 11 13 - - -
26/08:00pm - - - - - SSW 24 28 13 15 - - -
26/07:30pm - - - - - SSW 26 30 14 16 - - -
26/07:00pm - - - - - SSW 28 32 15 17 - - -
26/06:30pm - - - - - SSW 28 32 15 17 - - -
26/06:00pm - - - - - SSW 24 28 13 15 - - -
26/05:30pm - - - - - SSW 24 28 13 15 - - -
26/05:00pm - - - - - SSW 26 30 14 16 - - -
26/04:30pm - - - - - SSW 22 24 12 13 - - -
26/04:00pm - - - - - SSW 22 26 12 14 - - -
26/03:30pm - - - - - SSW 22 26 12 14 - - -
26/03:00pm - - - - - SSW 20 24 11 13 - - -
26/02:30pm - - - - - SSW 19 22 10 12 - - -
26/02:00pm - - - - - SSW 15 19 8 10 - - -
26/01:30pm - - - - - SSW 13 15 7 8 - - -
26/01:00pm - - - - - SSW 9 13 5 7 - - -
26/12:30pm - - - - - SSE 6 9 3 5 - - -
26/12:00pm - - - - - SSE 6 9 3 5 - - -
26/11:30am - - - - - CALM 0 2 0 1 - - -
26/11:00am - - - - - S 4 6 2 3 - - -
26/10:30am - - - - - E 7 9 4 5 - - -
26/10:00am - - - - - ENE 9 13 5 7 - - -
26/09:30am - - - - - ESE 11 15 6 8 - - -
26/09:00am - - - - - E 15 20 8 11 - - -
26/08:30am - - - - - E 15 20 8 11 - - -
26/08:00am - - - - - SSE 7 11 4 6 - - -
26/07:30am - - - - - SSE 11 13 6 7 - - -
26/07:00am - - - - - SE 9 11 5 6 - - -
26/06:30am - - - - - ESE 9 11 5 6 - - -
26/06:00am - - - - - ESE 11 13 6 7 - - -
26/05:30am - - - - - ENE 13 17 7 9 - - -
26/05:00am - - - - - E 9 13 5 7 - - -
26/04:30am - - - - - NE 11 15 6 8 - - -
26/04:00am - - - - - SSE 15 20 8 11 - - -
26/03:30am - - - - - SSE 15 20 8 11 - - -
26/03:00am - - - - - SSE 20 24 11 13 - - -
26/02:30am - - - - - SSE 30 35 16 19 - - -
26/02:00am - - - - - S 24 30 13 16 - - -
26/01:30am - - - - - S 15 19 8 10 - - -
26/01:00am - - - - - SSE 11 15 6 8 - - -
26/12:30am - - - - - S 13 28 7 15 - - -
26/12:00am - - - - - S 17 24 9 13 - - -
 
Date/Time
CDT
Temp
°C
App
Temp
°C
Dew
Point
°C
Rel
Hum
%
Delta-T
°C
Wind Press
QNH
hPa
Press
MSL
hPa
Rain since
9am
mm
Dir  Spd
km/h
Gust
km/h
Spd
kts
Gust
kts
25/11:30pm - - - - - SSE 22 26 12 14 - - -
25/11:00pm - - - - - SSW 26 32 14 17 - - -
25/10:30pm - - - - - SSW 22 28 12 15 - - -
25/10:00pm - - - - - S 24 28 13 15 - - -
25/09:30pm - - - - - SSW 22 28 12 15 - - -
25/09:00pm - - - - - SSW 22 28 12 15 - - -

Latest Capital City Observations: Canberra | Sydney | Melbourne | Brisbane | Adelaide | Perth | Hobart | Darwin

Other formats

Comma delimited format used in spreadsheet applications
http://www.bom.gov.au/fwo/IDS60901/IDS60901.95675.axf

JavaScript Object Notation format (JSON) in row-major order
http://www.bom.gov.au/fwo/IDS60901/IDS60901.95675.json

Data quality

Most of these data are generated automatically and are frequently updated. Quality checks on data are not normally performed. It is possible for incorrect values to appear. Refer to information at About Latest Weather Observations and please check the disclaimer before using these data.